createdAt,value
2022-08-27T00:01:56.192Z,26.90
2022-08-27T00:04:22.855Z,28.33
2022-08-27T00:06:49.304Z,27.47
2022-08-27T00:09:15.726Z,27.90
2022-08-27T00:11:45.055Z,25.97
2022-08-27T00:14:11.576Z,27.50
2022-08-27T00:16:38.136Z,27.37
2022-08-27T00:19:04.844Z,28.53
2022-08-27T00:21:33.042Z,29.70
2022-08-27T00:23:59.847Z,28.13
2022-08-27T00:26:26.356Z,27.20
2022-08-27T00:28:52.760Z,26.80
2022-08-27T00:31:19.310Z,25.87
2022-08-27T00:33:50.065Z,26.37
2022-08-27T00:36:16.432Z,25.03
2022-08-27T00:38:42.942Z,26.73
2022-08-27T00:41:10.635Z,26.00
2022-08-27T00:43:50.072Z,25.17
2022-08-27T00:46:22.023Z,24.17
2022-08-27T00:48:49.087Z,24.73
2022-08-27T00:51:15.606Z,23.50
2022-08-27T00:53:41.991Z,24.90
2022-08-27T00:56:09.828Z,24.50
2022-08-27T00:58:38.211Z,24.50
2022-08-27T01:01:06.779Z,24.87
2022-08-27T01:03:33.315Z,25.83
2022-08-27T01:06:01.563Z,24.97
2022-08-27T01:08:29.213Z,23.53
2022-08-27T01:10:57.916Z,25.10
2022-08-27T01:13:58.735Z,25.17
2022-08-27T01:16:16.417Z,23.83
2022-08-27T01:18:44.586Z,23.77
2022-08-27T01:21:29.451Z,24.73
2022-08-27T01:24:14.787Z,25.53
2022-08-27T01:26:41.425Z,25.93
2022-08-27T01:29:08.184Z,23.37
2022-08-27T01:31:34.682Z,24.00
2022-08-27T01:34:03.760Z,23.90
2022-08-27T01:36:30.438Z,25.03
2022-08-27T01:38:57.536Z,23.40
2022-08-27T01:41:24.292Z,23.23
2022-08-27T01:43:50.705Z,22.47
2022-08-27T01:46:26.954Z,22.67
2022-08-27T01:48:53.430Z,23.80
2022-08-27T01:51:20.330Z,23.03
2022-08-27T01:53:48.129Z,22.53
2022-08-27T01:56:15.362Z,22.47
2022-08-27T01:58:43.689Z,21.67
2022-08-27T02:01:12.090Z,22.13
2022-08-27T02:03:40.013Z,22.63
2022-08-27T02:06:08.168Z,24.47
2022-08-27T02:08:34.641Z,24.20
2022-08-27T02:11:01.556Z,25.97
2022-08-27T02:13:28.111Z,24.97
2022-08-27T02:15:54.975Z,26.23
2022-08-27T02:18:21.591Z,24.87
2022-08-27T02:20:48.522Z,25.77
2022-08-27T02:23:15.949Z,26.70
2022-08-27T02:25:42.555Z,27.87
2022-08-27T02:28:09.653Z,24.90
2022-08-27T02:30:37.263Z,26.33
2022-08-27T02:33:05.359Z,26.30
2022-08-27T02:35:33.201Z,25.10
2022-08-27T02:37:59.969Z,23.27
2022-08-27T02:40:26.853Z,23.30
2022-08-27T02:42:53.480Z,21.57
2022-08-27T02:45:20.685Z,21.47
2022-08-27T02:47:48.115Z,21.93
2022-08-27T02:50:14.948Z,19.67
2022-08-27T02:52:41.840Z,19.47
2022-08-27T02:55:08.578Z,20.00
2022-08-27T02:57:36.795Z,19.17
2022-08-27T03:00:09.133Z,19.63
2022-08-27T03:02:36.625Z,20.13
2022-08-27T03:05:03.191Z,19.03
2022-08-27T03:07:29.619Z,19.53
2022-08-27T03:09:55.984Z,20.30
2022-08-27T03:12:22.782Z,19.23
2022-08-27T03:14:51.257Z,21.20
2022-08-27T03:17:36.372Z,20.83
2022-08-27T03:20:04.303Z,19.30
2022-08-27T03:22:30.712Z,19.40
2022-08-27T03:24:57.075Z,19.60
2022-08-27T03:27:23.519Z,19.57
2022-08-27T03:29:49.888Z,19.20
2022-08-27T03:32:16.295Z,20.50
2022-08-27T03:34:42.635Z,20.47
2022-08-27T03:37:09.011Z,19.00
2022-08-27T03:39:35.384Z,17.97
2022-08-27T03:42:02.007Z,17.60
2022-08-27T03:44:28.539Z,15.80
2022-08-27T03:46:55.089Z,15.73
2022-08-27T03:49:21.915Z,14.77
2022-08-27T03:51:49.561Z,12.07
2022-08-27T03:54:16.101Z,11.53
2022-08-27T03:56:42.509Z,10.10
2022-08-27T03:59:08.981Z,9.07
2022-08-27T04:01:35.854Z,8.90
2022-08-27T04:04:02.417Z,7.87
2022-08-27T04:06:28.810Z,6.37
2022-08-27T04:08:55.221Z,8.00
2022-08-27T04:11:22.074Z,7.67
2022-08-27T04:13:48.552Z,7.70
2022-08-27T04:16:15.318Z,7.33
2022-08-27T04:18:41.898Z,6.73
2022-08-27T04:21:09.150Z,6.80
2022-08-27T04:23:35.541Z,7.00
2022-08-27T04:26:05.169Z,6.53
2022-08-27T04:28:36.421Z,6.90
2022-08-27T04:31:05.050Z,5.93
2022-08-27T04:33:32.426Z,6.27
2022-08-27T04:36:03.080Z,5.70
2022-08-27T04:38:29.505Z,6.17
2022-08-27T04:41:14.479Z,5.90
2022-08-27T04:43:40.932Z,5.97
2022-08-27T04:46:07.719Z,6.13
2022-08-27T04:48:34.667Z,6.30
2022-08-27T04:51:04.889Z,5.47
2022-08-27T04:53:31.271Z,6.23
2022-08-27T04:55:57.646Z,6.17
2022-08-27T04:58:25.135Z,6.17
2022-08-27T05:00:53.533Z,5.77
2022-08-27T05:03:22.097Z,5.67
2022-08-27T05:05:48.442Z,5.50
2022-08-27T05:08:15.295Z,5.30
2022-08-27T05:10:46.134Z,6.07
2022-08-27T05:13:12.866Z,6.10
2022-08-27T05:15:39.893Z,5.63
2022-08-27T05:18:07.410Z,5.80
2022-08-27T05:20:34.555Z,6.00
2022-08-27T05:23:00.944Z,5.87
2022-08-27T05:25:27.425Z,5.30
2022-08-27T05:27:53.811Z,5.50
2022-08-27T05:30:20.839Z,5.67
2022-08-27T05:32:47.245Z,6.00
2022-08-27T05:35:15.831Z,5.47
2022-08-27T05:37:42.816Z,5.70
2022-08-27T05:40:09.619Z,5.43
2022-08-27T05:42:36.121Z,5.37
2022-08-27T05:45:02.529Z,5.73
2022-08-27T05:47:29.254Z,6.13
2022-08-27T05:49:55.721Z,5.87
2022-08-27T05:52:22.155Z,5.83
2022-08-27T05:54:48.635Z,6.60
2022-08-27T05:57:15.067Z,6.37
2022-08-27T05:59:59.911Z,6.50
2022-08-27T06:02:26.393Z,6.10
2022-08-27T06:04:53.540Z,6.37
2022-08-27T06:07:20.167Z,6.33
2022-08-27T06:09:46.549Z,5.93
2022-08-27T06:12:12.958Z,6.33
2022-08-27T06:14:39.371Z,5.73
2022-08-27T06:17:06.421Z,6.20
2022-08-27T06:19:34.704Z,6.10
2022-08-27T06:22:10.591Z,6.40
2022-08-27T06:24:39.446Z,6.00
2022-08-27T06:27:06.063Z,5.97
2022-08-27T06:29:35.019Z,6.63
2022-08-27T06:32:01.747Z,7.03
2022-08-27T06:34:28.319Z,6.87
2022-08-27T06:36:54.990Z,8.17
2022-08-27T06:39:21.621Z,8.37
2022-08-27T06:41:50.148Z,8.70
2022-08-27T06:44:21.010Z,8.53
2022-08-27T06:46:47.522Z,9.33
2022-08-27T06:49:13.924Z,9.63
2022-08-27T06:51:43.064Z,9.87
2022-08-27T06:54:12.165Z,11.13
2022-08-27T06:56:38.885Z,11.30
2022-08-27T06:59:12.098Z,12.33
2022-08-27T07:01:40.124Z,12.97
2022-08-27T07:04:07.860Z,14.00
2022-08-27T07:06:34.869Z,15.43
2022-08-27T07:09:01.603Z,15.70
2022-08-27T07:11:29.118Z,15.03
2022-08-27T07:13:56.220Z,15.60
2022-08-27T07:16:23.974Z,14.83
2022-08-27T07:18:51.182Z,16.10
2022-08-27T07:21:20.036Z,16.50
2022-08-27T07:23:46.826Z,16.40
2022-08-27T07:26:13.990Z,17.20
2022-08-27T07:28:41.581Z,18.10
2022-08-27T07:31:09.220Z,18.83
2022-08-27T07:33:39.328Z,15.97
2022-08-27T07:36:08.610Z,15.77
2022-08-27T07:38:35.845Z,16.27
2022-08-27T07:41:05.864Z,13.23
2022-08-27T07:43:51.031Z,12.43
2022-08-27T07:46:23.571Z,14.20
2022-08-27T07:48:50.606Z,15.37
2022-08-27T07:51:18.603Z,12.63
2022-08-27T07:53:45.841Z,14.37
2022-08-27T07:56:13.128Z,13.97
2022-08-27T07:58:39.894Z,14.13
2022-08-27T08:01:06.424Z,15.47
2022-08-27T08:03:33.058Z,15.50
2022-08-27T08:06:03.721Z,14.27
2022-08-27T08:08:30.085Z,13.40
2022-08-27T08:10:59.280Z,14.83
2022-08-27T08:13:26.406Z,16.97
2022-08-27T08:15:52.796Z,15.60
2022-08-27T08:18:20.175Z,16.77
2022-08-27T08:20:57.981Z,17.40
2022-08-27T08:23:25.069Z,17.87
2022-08-27T08:25:51.471Z,17.47
2022-08-27T08:28:17.882Z,17.03
2022-08-27T08:30:44.436Z,17.57
2022-08-27T08:33:10.840Z,17.80
2022-08-27T08:35:41.305Z,16.27
2022-08-27T08:38:08.091Z,16.43
2022-08-27T08:40:36.590Z,15.93
2022-08-27T08:43:03.895Z,15.03
2022-08-27T08:45:32.091Z,15.13
2022-08-27T08:48:04.317Z,16.77
2022-08-27T08:50:35.323Z,16.80
2022-08-27T08:53:04.479Z,18.33
2022-08-27T08:55:30.849Z,18.47
2022-08-27T08:58:09.820Z,18.87
2022-08-27T09:00:37.355Z,18.53
2022-08-27T09:03:03.750Z,18.47
2022-08-27T09:05:31.015Z,18.47
2022-08-27T09:08:09.967Z,17.90
2022-08-27T09:10:47.140Z,18.03
2022-08-27T09:13:33.760Z,17.30
2022-08-27T09:16:02.009Z,16.73
2022-08-27T09:18:28.514Z,17.07
2022-08-27T09:21:02.029Z,16.83
2022-08-27T09:23:57.270Z,16.33
2022-08-27T09:26:25.317Z,17.50
2022-08-27T09:29:18.855Z,17.13
2022-08-27T09:32:04.959Z,16.87
2022-08-27T09:34:36.288Z,16.37
2022-08-27T09:37:02.664Z,15.50
2022-08-27T09:39:33.327Z,16.53
2022-08-27T09:41:59.842Z,16.33
2022-08-27T09:44:26.431Z,17.13
2022-08-27T09:46:54.350Z,16.23
2022-08-27T09:49:21.103Z,14.57
2022-08-27T09:51:47.959Z,14.83
2022-08-27T09:54:30.273Z,14.97
2022-08-27T09:56:59.013Z,13.93
2022-08-27T09:59:27.317Z,14.00
2022-08-27T10:01:55.559Z,13.43
2022-08-27T10:04:27.442Z,14.13
2022-08-27T10:06:54.647Z,13.17
2022-08-27T10:09:31.601Z,14.70
2022-08-27T10:12:17.743Z,13.50
2022-08-27T10:14:47.325Z,13.37
2022-08-27T10:17:32.305Z,13.10
2022-08-27T10:20:11.723Z,12.90
2022-08-27T10:23:01.583Z,12.37
2022-08-27T10:25:46.176Z,12.73
2022-08-27T10:28:21.471Z,13.80
2022-08-27T10:31:11.533Z,13.80
2022-08-27T10:33:54.613Z,12.37
2022-08-27T10:36:21.655Z,13.67
2022-08-27T10:39:14.760Z,13.17
2022-08-27T10:41:50.098Z,14.00
2022-08-27T10:44:28.401Z,13.63
2022-08-27T10:47:04.878Z,12.90
2022-08-27T10:49:43.480Z,13.87
2022-08-27T10:52:17.365Z,13.83
2022-08-27T10:54:48.077Z,13.37
2022-08-27T10:57:35.169Z,12.37
2022-08-27T11:00:14.068Z,11.20
2022-08-27T11:02:47.635Z,12.63
2022-08-27T11:05:23.277Z,13.70
2022-08-27T11:07:52.862Z,14.20
2022-08-27T11:10:24.408Z,13.37
2022-08-27T11:12:53.440Z,11.97
2022-08-27T11:15:26.829Z,14.17
2022-08-27T11:18:16.177Z,13.03
2022-08-27T11:20:57.488Z,12.73
2022-08-27T11:23:28.573Z,13.03
2022-08-27T11:29:53.342Z,11.93
2022-08-27T11:32:33.939Z,11.77
2022-08-27T11:35:03.216Z,11.80
2022-08-27T11:37:38.737Z,12.30
2022-08-27T11:40:23.474Z,12.47
2022-08-27T11:42:51.666Z,11.90
2022-08-27T11:45:17.986Z,10.50
2022-08-27T11:47:51.567Z,11.07
2022-08-27T11:50:19.432Z,11.00
2022-08-27T11:53:15.718Z,10.90
2022-08-27T11:55:42.542Z,10.47
2022-08-27T11:58:18.016Z,11.20
2022-08-27T12:00:45.586Z,11.33
2022-08-27T12:03:21.186Z,11.13
2022-08-27T12:05:53.385Z,11.13
2022-08-27T12:08:22.769Z,10.77
2022-08-27T12:11:09.412Z,10.00
2022-08-27T12:13:41.781Z,11.23
2022-08-27T12:16:12.578Z,10.50
2022-08-27T12:18:59.256Z,10.07
2022-08-27T12:21:44.668Z,9.83
2022-08-27T12:24:26.186Z,9.83
2022-08-27T12:27:00.920Z,8.50
2022-08-27T12:29:31.049Z,9.33
2022-08-27T12:32:16.253Z,9.57
2022-08-27T12:34:43.894Z,9.43
2022-08-27T12:37:11.801Z,8.57
2022-08-27T12:39:39.203Z,8.70
2022-08-27T12:42:12.384Z,8.63
2022-08-27T12:44:38.753Z,8.23
2022-08-27T12:47:07.625Z,8.90
2022-08-27T12:49:39.334Z,8.53
2022-08-27T12:52:14.837Z,9.40
2022-08-27T12:54:48.362Z,8.70
2022-08-27T12:57:22.003Z,7.40
2022-08-27T13:00:00.560Z,7.37
2022-08-27T13:02:31.138Z,6.90
2022-08-27T13:04:57.768Z,7.33
2022-08-27T13:07:32.965Z,7.30
2022-08-27T13:10:18.405Z,6.60
2022-08-27T13:12:45.352Z,7.13
2022-08-27T13:15:14.503Z,7.17
2022-08-27T13:17:44.274Z,6.45
2022-08-27T13:20:15.931Z,6.45
2022-08-27T13:22:43.582Z,6.25
2022-08-27T13:25:39.326Z,6.53
2022-08-27T13:28:11.454Z,5.63
2022-08-27T13:30:39.849Z,6.72
2022-08-27T13:33:07.526Z,7.28
2022-08-27T13:35:34.360Z,8.80
2022-08-27T13:38:02.487Z,6.93
2022-08-27T13:40:34.420Z,7.20
2022-08-27T13:43:08.783Z,7.20
2022-08-27T13:45:36.616Z,6.93
2022-08-27T13:48:03.162Z,6.70
2022-08-27T13:50:31.059Z,7.40
2022-08-27T13:53:22.094Z,6.80
2022-08-27T13:55:49.307Z,6.73
2022-08-27T13:58:20.152Z,6.80
2022-08-27T14:00:46.528Z,7.60
2022-08-27T14:03:33.241Z,7.43
2022-08-27T14:06:00.170Z,7.30
2022-08-27T14:08:32.336Z,8.07
2022-08-27T14:11:00.589Z,7.17
2022-08-27T14:13:28.733Z,7.00
2022-08-27T14:15:56.593Z,7.20
2022-08-27T14:18:42.133Z,7.67
2022-08-27T14:21:11.699Z,8.43
2022-08-27T14:23:38.089Z,7.20
2022-08-27T14:26:04.506Z,7.30
2022-08-27T14:28:31.962Z,8.50
2022-08-27T14:30:58.488Z,7.10
2022-08-27T14:33:24.945Z,7.47
2022-08-27T14:35:51.341Z,7.33
2022-08-27T14:38:19.628Z,7.50
2022-08-27T14:40:46.922Z,6.90
2022-08-27T14:43:13.705Z,7.37
2022-08-27T14:45:41.591Z,6.93
2022-08-27T14:48:18.688Z,7.37
2022-08-27T14:50:46.196Z,8.03
2022-08-27T14:53:14.201Z,7.57
2022-08-27T14:55:40.592Z,7.47
2022-08-27T14:58:07.034Z,8.07
2022-08-27T15:00:33.660Z,8.87
2022-08-27T15:03:00.072Z,8.23
2022-08-27T15:05:26.597Z,8.43
2022-08-27T15:07:54.639Z,8.80
2022-08-27T15:10:21.110Z,8.97
2022-08-27T15:12:47.516Z,8.83
2022-08-27T15:15:14.736Z,8.30
2022-08-27T15:17:41.358Z,8.37
2022-08-27T15:20:10.081Z,8.40
2022-08-27T15:22:44.970Z,8.60
2022-08-27T15:25:12.194Z,8.27
2022-08-27T15:27:39.215Z,8.67
2022-08-27T15:30:07.486Z,9.00
2022-08-27T15:32:35.042Z,8.97
2022-08-27T15:35:04.810Z,8.43
2022-08-27T15:37:31.321Z,8.90
2022-08-27T15:39:57.965Z,8.27
2022-08-27T15:42:24.541Z,8.60
2022-08-27T15:44:52.549Z,8.60
2022-08-27T15:47:19.753Z,8.90
2022-08-27T15:49:46.435Z,9.50
2022-08-27T15:52:16.087Z,8.77
2022-08-27T15:54:43.340Z,10.40
2022-08-27T15:57:09.902Z,9.93
2022-08-27T15:59:36.368Z,9.83
2022-08-27T16:02:04.604Z,10.20
2022-08-27T16:04:31.030Z,9.40
2022-08-27T16:06:57.441Z,10.00
2022-08-27T16:09:23.939Z,10.33
2022-08-27T16:11:50.303Z,10.40
2022-08-27T16:14:17.003Z,10.60
2022-08-27T16:16:45.039Z,11.10
2022-08-27T16:19:14.813Z,11.00
2022-08-27T16:21:43.021Z,11.23
2022-08-27T16:24:09.480Z,11.10
2022-08-27T16:26:37.479Z,11.47
2022-08-27T16:29:04.967Z,11.67
2022-08-27T16:31:32.763Z,10.63
2022-08-27T16:33:59.869Z,12.07
2022-08-27T16:36:26.441Z,12.27
2022-08-27T16:38:52.907Z,11.80
2022-08-27T16:41:19.948Z,11.47
2022-08-27T16:43:48.509Z,10.57
2022-08-27T16:46:14.951Z,10.93
2022-08-27T16:49:01.355Z,10.23
2022-08-27T16:51:33.182Z,9.53
2022-08-27T16:54:05.789Z,10.20
2022-08-27T16:56:37.056Z,10.67
2022-08-27T16:59:04.796Z,10.37
2022-08-27T17:01:31.449Z,10.47
2022-08-27T17:04:09.203Z,10.10
2022-08-27T17:06:37.936Z,10.23
2022-08-27T17:09:06.213Z,10.20
2022-08-27T17:11:33.233Z,9.27
2022-08-27T17:14:02.158Z,10.83
2022-08-27T17:16:29.714Z,10.17
2022-08-27T17:18:58.283Z,9.53
2022-08-27T17:21:29.608Z,10.57
2022-08-27T17:23:59.132Z,10.43
2022-08-27T17:26:26.149Z,10.37
2022-08-27T17:28:53.011Z,9.83
2022-08-27T17:31:26.125Z,10.10
2022-08-27T17:33:55.215Z,9.67
2022-08-27T17:36:22.580Z,9.87
2022-08-27T17:38:53.840Z,9.60
2022-08-27T17:41:20.215Z,9.57
2022-08-27T17:43:46.653Z,8.93
2022-08-27T17:46:13.742Z,9.87
2022-08-27T17:48:40.689Z,9.90
2022-08-27T17:51:08.578Z,10.40
2022-08-27T17:53:35.001Z,10.27
2022-08-27T17:56:01.605Z,11.03
2022-08-27T17:58:28.122Z,10.23
2022-08-27T18:00:54.587Z,11.37
2022-08-27T18:03:21.544Z,10.53
2022-08-27T18:05:48.349Z,10.83
2022-08-27T18:08:15.082Z,10.80
2022-08-27T18:10:42.951Z,11.10
2022-08-27T18:13:10.401Z,11.83
2022-08-27T18:15:38.794Z,12.00
2022-08-27T18:18:05.593Z,11.50
2022-08-27T18:20:33.086Z,12.30
2022-08-27T18:23:00.013Z,11.00
2022-08-27T18:25:29.779Z,12.50
2022-08-27T18:28:00.901Z,11.77
2022-08-27T18:30:27.940Z,12.43
2022-08-27T18:32:54.530Z,12.00
2022-08-27T18:35:23.315Z,11.27
2022-08-27T18:37:50.189Z,11.67
2022-08-27T18:40:18.147Z,11.77
2022-08-27T18:42:45.109Z,12.17
2022-08-27T18:45:13.315Z,12.57
2022-08-27T18:47:40.221Z,12.03
2022-08-27T18:50:09.487Z,12.00
2022-08-27T18:52:44.312Z,13.17
2022-08-27T18:55:11.912Z,12.30
2022-08-27T18:57:38.374Z,13.13
2022-08-27T19:00:06.198Z,13.23
2022-08-27T19:02:33.231Z,12.30
2022-08-27T19:05:00.090Z,13.60
2022-08-27T19:07:29.713Z,12.67
2022-08-27T19:09:56.889Z,11.47
2022-08-27T19:12:23.983Z,12.90
2022-08-27T19:14:50.466Z,13.77
2022-08-27T19:17:25.143Z,12.67
2022-08-27T19:19:52.479Z,13.03
2022-08-27T19:22:19.071Z,12.07
2022-08-27T19:24:47.515Z,12.17
2022-08-27T19:27:15.530Z,12.77
2022-08-27T19:29:42.059Z,13.00
2022-08-27T19:32:08.547Z,12.60
2022-08-27T19:34:35.102Z,12.43
2022-08-27T19:37:02.050Z,13.33
2022-08-27T19:39:28.533Z,12.43
2022-08-27T19:41:55.186Z,12.97
2022-08-27T19:44:21.613Z,13.13
2022-08-27T19:46:49.649Z,11.97
2022-08-27T19:49:16.029Z,12.67
2022-08-27T19:51:42.427Z,11.87
2022-08-27T19:54:08.793Z,11.60
2022-08-27T19:56:35.401Z,12.63
2022-08-27T19:59:16.249Z,11.30
2022-08-27T20:01:47.801Z,12.33
2022-08-27T20:04:14.288Z,13.40
2022-08-27T20:06:40.755Z,12.67
2022-08-27T20:09:09.672Z,12.27
2022-08-27T20:11:36.105Z,11.23
2022-08-27T20:14:02.533Z,11.13
2022-08-27T20:16:28.977Z,10.83
2022-08-27T20:18:59.667Z,10.40
2022-08-27T20:21:27.266Z,12.07
2022-08-27T20:23:53.816Z,12.00
2022-08-27T20:26:21.721Z,11.17
2022-08-27T20:28:49.635Z,11.43
2022-08-27T20:31:17.765Z,10.67
2022-08-27T20:33:44.640Z,11.77
2022-08-27T20:36:12.422Z,11.23
2022-08-27T20:38:39.138Z,12.13
2022-08-27T20:41:06.275Z,11.97
2022-08-27T20:43:32.961Z,11.07
2022-08-27T20:45:59.748Z,11.70
2022-08-27T20:48:26.190Z,10.93
2022-08-27T20:50:52.551Z,11.37
2022-08-27T20:53:18.951Z,11.07
2022-08-27T20:55:45.320Z,10.90
2022-08-27T20:58:30.209Z,10.67
2022-08-27T21:00:57.369Z,10.87
2022-08-27T21:03:24.052Z,11.17
2022-08-27T21:05:50.672Z,10.87
2022-08-27T21:08:18.179Z,10.47
2022-08-27T21:10:51.856Z,10.63
2022-08-27T21:13:19.084Z,9.93
2022-08-27T21:15:45.451Z,10.70
2022-08-27T21:18:12.610Z,11.00
2022-08-27T21:20:39.305Z,9.80
2022-08-27T21:23:05.812Z,10.50
2022-08-27T21:25:32.177Z,9.83
2022-08-27T21:28:00.272Z,11.17
2022-08-27T21:30:27.165Z,11.00
2022-08-27T21:32:57.073Z,10.43
2022-08-27T21:35:26.369Z,9.83
2022-08-27T21:37:53.864Z,10.00
2022-08-27T21:40:20.578Z,10.40
2022-08-27T21:42:47.720Z,9.67
2022-08-27T21:45:14.248Z,9.47
2022-08-27T21:47:44.627Z,8.87
2022-08-27T21:50:11.166Z,9.83
2022-08-27T21:52:37.828Z,9.57
2022-08-27T21:55:04.592Z,9.47
2022-08-27T21:57:31.043Z,9.47
2022-08-27T21:59:57.495Z,9.27
2022-08-27T22:02:40.760Z,9.37
2022-08-27T22:05:07.716Z,9.67
2022-08-27T22:07:34.120Z,8.67
2022-08-27T22:10:00.499Z,9.20
2022-08-27T22:12:26.873Z,9.53
2022-08-27T22:14:53.283Z,8.37
2022-08-27T22:17:19.638Z,9.03
2022-08-27T22:19:46.129Z,9.10
2022-08-27T22:22:12.517Z,8.47
2022-08-27T22:24:38.929Z,8.47
2022-08-27T22:27:05.343Z,9.27
2022-08-27T22:29:31.840Z,8.97
2022-08-27T22:31:58.343Z,8.60
2022-08-27T22:34:24.792Z,8.13
2022-08-27T22:36:51.310Z,8.50
2022-08-27T22:39:17.675Z,8.83
2022-08-27T22:41:46.137Z,9.37
2022-08-27T22:44:15.137Z,8.90
2022-08-27T22:46:41.603Z,9.60
2022-08-27T22:49:08.142Z,9.33
2022-08-27T22:51:34.540Z,9.67
2022-08-27T22:54:00.913Z,9.03
2022-08-27T22:56:27.376Z,8.57
2022-08-27T22:58:53.765Z,8.53
2022-08-27T23:01:20.796Z,9.13
2022-08-27T23:03:47.666Z,8.67
2022-08-27T23:06:14.128Z,9.67
2022-08-27T23:08:40.505Z,9.37
2022-08-27T23:11:06.924Z,9.57
2022-08-27T23:13:33.762Z,9.53
2022-08-27T23:16:01.444Z,9.90
2022-08-27T23:18:28.091Z,10.50
2022-08-27T23:20:55.021Z,9.83
2022-08-27T23:23:21.388Z,10.17
2022-08-27T23:26:06.571Z,9.87
2022-08-27T23:28:32.941Z,10.03
2022-08-27T23:30:59.916Z,9.37
2022-08-27T23:33:26.300Z,9.53
2022-08-27T23:35:52.687Z,10.00
2022-08-27T23:38:19.720Z,9.60
2022-08-27T23:40:46.455Z,10.30
2022-08-27T23:43:13.945Z,10.07
2022-08-27T23:45:40.709Z,10.07
2022-08-27T23:48:07.652Z,9.40
2022-08-27T23:50:34.984Z,9.93
2022-08-27T23:53:01.919Z,9.83
2022-08-27T23:55:28.400Z,10.77
2022-08-27T23:57:57.569Z,10.80
